Time;durP1;ratioP1;P1;durP2;ratioP2;P2;SDS_P1;SDS_P2;PMS_P1;PMS_P2;Temp;Humidity;BMP_temperature;BMP_pressure;BME280_temperature;BME280_humidity;BME280_pressure;Samples;Min_cycle;Max_cycle;Signal;HPM_P1;HPM_P2
2022/10/13 00:01:49;;;;;;;11.33;7.10;;;;;;;;;;5051917;28;20716;-81
2022/10/13 00:04:16;;;;;;;10.50;8.20;;;;;;;;;;5051416;28;20238;-80
2022/10/13 00:06:43;;;;;;;10.17;8.27;;;;;;;;;;5052126;28;20208;-81
2022/10/13 00:09:10;;;;;;;11.67;7.47;;;;;;;;;;5051077;28;20241;-80
2022/10/13 00:11:37;;;;;;;9.20;7.60;;;;;;;;;;5051661;28;20226;-81
2022/10/13 00:14:04;;;;;;;11.30;8.10;;;;;;;;;;5051328;28;20237;-81
2022/10/13 00:16:33;;;;;;;10.10;6.67;;;;;;;;;;5051702;28;20206;-81
2022/10/13 00:19:00;;;;;;;6.60;6.00;;;;;;;;;;5050950;28;20238;-81
2022/10/13 00:21:28;;;;;;;7.37;6.63;;;;;;;;;;5052011;28;20230;-81
2022/10/13 00:23:55;;;;;;;12.17;7.60;;;;;;;;;;5051116;28;20248;-81
2022/10/13 00:26:23;;;;;;;8.60;7.70;;;;;;;;;;5051559;28;20209;-80
2022/10/13 00:28:50;;;;;;;8.83;7.27;;;;;;;;;;5050964;28;20234;-81
2022/10/13 00:31:19;;;;;;;8.50;6.20;;;;;;;;;;5051444;28;20233;-81
2022/10/13 00:33:48;;;;;;;7.13;6.43;;;;;;;;;;5051099;28;20229;-81
2022/10/13 00:36:15;;;;;;;8.73;6.50;;;;;;;;;;5051595;28;20214;-81
2022/10/13 00:38:43;;;;;;;7.50;6.57;;;;;;;;;;5050943;28;20233;-81
2022/10/13 00:41:10;;;;;;;7.77;6.60;;;;;;;;;;5051660;28;20226;-81
2022/10/13 00:43:51;;;;;;;7.13;6.43;;;;;;;;;;5051026;28;20238;-81
2022/10/13 00:46:18;;;;;;;7.23;6.20;;;;;;;;;;5051751;28;20201;-81
2022/10/13 00:48:46;;;;;;;6.40;5.70;;;;;;;;;;5050833;28;20238;-80
2022/10/13 00:51:16;;;;;;;9.73;6.90;;;;;;;;;;5051385;28;20230;-81
2022/10/13 00:53:44;;;;;;;7.80;5.93;;;;;;;;;;5053382;28;20853;-81
2022/10/13 00:56:12;;;;;;;11.33;6.73;;;;;;;;;;5055186;28;20206;-81
2022/10/13 00:58:39;;;;;;;7.57;6.40;;;;;;;;;;5054972;28;20229;-81
2022/10/13 01:01:07;;;;;;;7.13;6.40;;;;;;;;;;5075454;28;20229;-81
2022/10/13 01:03:34;;;;;;;8.73;6.73;;;;;;;;;;5048942;28;20238;-81
2022/10/13 01:06:03;;;;;;;10.13;7.10;;;;;;;;;;5041109;28;20579;-81
2022/10/13 01:08:32;;;;;;;10.73;7.03;;;;;;;;;;5054478;28;20230;-81
2022/10/13 01:11:02;;;;;;;8.83;6.43;;;;;;;;;;5055158;28;20233;-81
2022/10/13 01:13:33;;;;;;;8.93;6.80;;;;;;;;;;5054636;28;20283;-81
2022/10/13 01:16:04;;;;;;;7.53;6.70;;;;;;;;;;5055057;28;20213;-81
2022/10/13 01:18:36;;;;;;;6.93;5.63;;;;;;;;;;5054270;28;20244;-81
2022/10/13 01:21:06;;;;;;;6.97;6.20;;;;;;;;;;5054830;28;20709;-81
2022/10/13 01:23:50;;;;;;;12.30;6.03;;;;;;;;;;5063876;28;20600;-80
2022/10/13 01:26:25;;;;;;;7.90;6.63;;;;;;;;;;5074936;28;20201;-81
2022/10/13 01:29:02;;;;;;;7.67;5.80;;;;;;;;;;5074140;28;20236;-81
2022/10/13 01:31:35;;;;;;;9.97;6.13;;;;;;;;;;5074578;28;20732;-81
2022/10/13 01:34:07;;;;;;;9.13;6.13;;;;;;;;;;5074218;28;20237;-81
2022/10/13 01:36:40;;;;;;;6.90;6.20;;;;;;;;;;5074744;28;20216;-81
2022/10/13 01:39:09;;;;;;;6.30;5.70;;;;;;;;;;5073764;28;20237;-81
2022/10/13 01:41:38;;;;;;;8.53;6.37;;;;;;;;;;5074435;28;20237;-81
2022/10/13 01:44:11;;;;;;;7.03;6.33;;;;;;;;;;5074186;28;20605;-81
2022/10/13 01:46:40;;;;;;;8.73;7.17;;;;;;;;;;5074532;28;20288;-80
2022/10/13 01:49:10;;;;;;;8.93;7.03;;;;;;;;;;5073794;28;20232;-81
2022/10/13 01:51:37;;;;;;;7.23;6.30;;;;;;;;;;5074142;28;20221;-81
2022/10/13 01:54:04;;;;;;;8.03;6.90;;;;;;;;;;5073896;28;20245;-81
2022/10/13 01:56:31;;;;;;;7.97;7.13;;;;;;;;;;5074178;28;20865;-81
2022/10/13 01:59:00;;;;;;;11.80;7.37;;;;;;;;;;5070313;28;20237;-81
2022/10/13 02:01:32;;;;;;;7.53;6.80;;;;;;;;;;5054388;28;20624;-81
2022/10/13 02:04:05;;;;;;;9.30;7.37;;;;;;;;;;5053535;28;20234;-81
2022/10/13 02:06:33;;;;;;;9.73;7.40;;;;;;;;;;5054019;28;20194;-81
2022/10/13 02:09:03;;;;;;;9.93;7.17;;;;;;;;;;5053255;28;20230;-81
2022/10/13 02:11:30;;;;;;;8.60;7.37;;;;;;;;;;5054210;28;20226;-81
2022/10/13 02:14:00;;;;;;;10.00;8.53;;;;;;;;;;5052462;28;20234;-81
2022/10/13 02:16:29;;;;;;;12.87;8.53;;;;;;;;;;5054187;28;20198;-81
2022/10/13 02:18:57;;;;;;;18.33;10.60;;;;;;;;;;5053003;28;20260;-81
2022/10/13 02:21:25;;;;;;;12.87;9.17;;;;;;;;;;5053779;28;20233;-81
2022/10/13 02:23:53;;;;;;;10.57;8.73;;;;;;;;;;5053277;28;20242;-81
2022/10/13 02:26:20;;;;;;;14.63;8.70;;;;;;;;;;5053988;28;20210;-81
2022/10/13 02:28:47;;;;;;;17.10;9.20;;;;;;;;;;5052984;28;20237;-81
2022/10/13 02:31:14;;;;;;;12.40;9.40;;;;;;;;;;5053797;28;20673;-81
2022/10/13 02:33:55;;;;;;;11.87;8.43;;;;;;;;;;5053058;28;20240;-81
2022/10/13 02:36:22;;;;;;;14.17;9.80;;;;;;;;;;5053574;28;20209;-81
2022/10/13 02:38:50;;;;;;;14.77;9.70;;;;;;;;;;5052669;28;20518;-81
2022/10/13 02:41:17;;;;;;;12.27;9.57;;;;;;;;;;5053257;28;20566;-81
2022/10/13 02:43:44;;;;;;;14.40;9.97;;;;;;;;;;5052986;28;20631;-81
2022/10/13 02:46:11;;;;;;;14.20;10.20;;;;;;;;;;5053305;28;20709;-81
2022/10/13 02:48:39;;;;;;;16.77;10.77;;;;;;;;;;5052688;28;20233;-80
2022/10/13 02:51:06;;;;;;;14.30;9.57;;;;;;;;;;5053187;28;20225;-81
2022/10/13 02:53:33;;;;;;;16.27;10.87;;;;;;;;;;5052649;28;20614;-81
2022/10/13 02:56:03;;;;;;;16.70;10.70;;;;;;;;;;5053378;28;20233;-81
2022/10/13 02:58:30;;;;;;;16.23;11.47;;;;;;;;;;5052364;28;20243;-81
2022/10/13 03:01:05;;;;;;;16.30;10.53;;;;;;;;;;5072625;28;20229;-81
2022/10/13 03:03:32;;;;;;;17.80;11.37;;;;;;;;;;5072778;28;20608;-81
2022/10/13 03:05:59;;;;;;;18.13;11.37;;;;;;;;;;5073070;28;20205;-81
2022/10/13 03:08:26;;;;;;;17.60;11.17;;;;;;;;;;5072574;28;20663;-81
2022/10/13 03:10:53;;;;;;;14.83;10.13;;;;;;;;;;5072560;28;20230;-81
2022/10/13 03:13:22;;;;;;;13.27;10.10;;;;;;;;;;5072367;28;20228;-82
2022/10/13 03:15:49;;;;;;;13.23;10.40;;;;;;;;;;5072532;28;20224;-81
2022/10/13 03:18:16;;;;;;;17.47;11.27;;;;;;;;;;5071605;28;20240;-81
2022/10/13 03:20:43;;;;;;;13.57;10.17;;;;;;;;;;5072357;28;20241;-81
2022/10/13 03:23:10;;;;;;;16.80;12.67;;;;;;;;;;5072330;28;20252;-81
2022/10/13 03:25:37;;;;;;;18.77;10.53;;;;;;;;;;5072485;28;20208;-81
2022/10/13 03:28:05;;;;;;;13.13;10.63;;;;;;;;;;5071991;28;20236;-81
2022/10/13 03:30:33;;;;;;;15.27;10.67;;;;;;;;;;5072223;28;20741;-81
2022/10/13 03:33:00;;;;;;;13.37;9.77;;;;;;;;;;5072111;28;20244;-81
2022/10/13 03:35:27;;;;;;;13.70;9.93;;;;;;;;;;5072788;28;20201;-81
2022/10/13 03:37:55;;;;;;;13.43;9.77;;;;;;;;;;5071618;28;20233;-81
2022/10/13 03:40:22;;;;;;;14.47;10.30;;;;;;;;;;5072761;28;20229;-81
2022/10/13 03:42:50;;;;;;;13.60;9.53;;;;;;;;;;5071797;28;20291;-81
2022/10/13 03:45:17;;;;;;;19.57;10.53;;;;;;;;;;5072285;28;20231;-81
2022/10/13 03:47:46;;;;;;;14.43;9.97;;;;;;;;;;5071338;28;20237;-81
2022/10/13 03:50:13;;;;;;;14.53;9.53;;;;;;;;;;5072198;28;20225;-81
2022/10/13 03:52:40;;;;;;;12.70;9.80;;;;;;;;;;5071665;28;20233;-81
2022/10/13 03:55:07;;;;;;;12.20;9.53;;;;;;;;;;5071985;28;20237;-81
2022/10/13 03:57:34;;;;;;;12.50;9.40;;;;;;;;;;5071234;28;20236;-81
2022/10/13 04:00:02;;;;;;;12.77;10.03;;;;;;;;;;5072123;28;20236;-81
2022/10/13 04:02:29;;;;;;;12.47;9.50;;;;;;;;;;5036339;28;20265;-81
2022/10/13 04:04:58;;;;;;;16.87;10.80;;;;;;;;;;5032327;28;20202;-81
2022/10/13 04:07:25;;;;;;;18.07;10.47;;;;;;;;;;5031472;28;20241;-81
2022/10/13 04:09:52;;;;;;;14.00;9.20;;;;;;;;;;5031696;28;20211;-81
2022/10/13 04:12:20;;;;;;;13.90;9.33;;;;;;;;;;5059260;28;20230;-82
2022/10/13 04:14:47;;;;;;;14.97;9.70;;;;;;;;;;5058221;28;20661;-82
2022/10/13 04:17:14;;;;;;;18.13;9.90;;;;;;;;;;5059717;28;20212;-82
2022/10/13 04:19:41;;;;;;;14.23;10.03;;;;;;;;;;5031568;28;20237;-82
2022/10/13 04:22:09;;;;;;;18.23;10.57;;;;;;;;;;5046296;28;20209;-83
2022/10/13 04:24:37;;;;;;;14.50;10.77;;;;;;;;;;5031964;28;20199;-82
2022/10/13 04:27:04;;;;;;;15.13;10.73;;;;;;;;;;5031379;28;20213;-83
2022/10/13 04:29:31;;;;;;;14.13;10.43;;;;;;;;;;5037891;28;20206;-83
2022/10/13 04:31:59;;;;;;;13.20;9.37;;;;;;;;;;5056048;28;20226;-85
2022/10/13 04:34:28;;;;;;;14.30;9.70;;;;;;;;;;5056585;28;20633;-85
2022/10/13 04:36:55;;;;;;;16.70;10.17;;;;;;;;;;5056179;28;20210;-85
2022/10/13 04:39:23;;;;;;;17.27;10.20;;;;;;;;;;5055118;28;20241;-85
2022/10/13 04:41:53;;;;;;;17.07;10.27;;;;;;;;;;5055570;28;20217;-85
2022/10/13 04:44:20;;;;;;;15.53;10.13;;;;;;;;;;5055404;28;20244;-86
2022/10/13 04:46:47;;;;;;;14.43;10.23;;;;;;;;;;5055324;28;20263;-86
2022/10/13 04:49:15;;;;;;;17.30;10.30;;;;;;;;;;5054722;28;20234;-85
2022/10/13 04:51:42;;;;;;;16.00;9.53;;;;;;;;;;5055901;28;20230;-86
2022/10/13 04:54:09;;;;;;;16.10;10.00;;;;;;;;;;5054972;28;20238;-85
2022/10/13 04:56:38;;;;;;;18.73;10.73;;;;;;;;;;5055437;28;20315;-86
2022/10/13 04:59:05;;;;;;;14.13;10.03;;;;;;;;;;5054703;28;20236;-87
2022/10/13 05:01:33;;;;;;;17.57;10.30;;;;;;;;;;5055384;28;20226;-87
2022/10/13 05:04:01;;;;;;;15.20;10.20;;;;;;;;;;5055104;28;20238;-87
2022/10/13 05:06:29;;;;;;;17.07;10.60;;;;;;;;;;5055369;28;20202;-87
2022/10/13 05:08:57;;;;;;;14.70;10.40;;;;;;;;;;5054330;28;20324;-83
2022/10/13 05:11:24;;;;;;;16.00;10.73;;;;;;;;;;5054952;28;20232;-82
2022/10/13 05:13:53;;;;;;;15.03;10.60;;;;;;;;;;5054462;28;20316;-81
2022/10/13 05:16:21;;;;;;;18.23;10.93;;;;;;;;;;5054884;28;20206;-81
2022/10/13 05:18:48;;;;;;;17.57;12.13;;;;;;;;;;5054274;28;20311;-82
2022/10/13 05:21:16;;;;;;;14.33;11.20;;;;;;;;;;5054529;28;20604;-82
2022/10/13 05:23:44;;;;;;;19.23;10.67;;;;;;;;;;5053165;28;20612;-82
2022/10/13 05:26:12;;;;;;;16.47;10.53;;;;;;;;;;5054716;28;20313;-82
2022/10/13 05:28:39;;;;;;;14.77;10.53;;;;;;;;;;5053802;28;20234;-82
2022/10/13 05:31:12;;;;;;;15.97;10.37;;;;;;;;;;5054457;28;20238;-82
2022/10/13 05:33:39;;;;;;;15.37;10.23;;;;;;;;;;5054113;28;20233;-82
2022/10/13 05:36:07;;;;;;;18.10;10.07;;;;;;;;;;5054563;28;20205;-82
2022/10/13 05:38:34;;;;;;;14.70;10.20;;;;;;;;;;5053651;28;20321;-80
2022/10/13 05:41:05;;;;;;;13.10;10.00;;;;;;;;;;5053276;28;20245;-81
2022/10/13 05:43:32;;;;;;;17.13;11.37;;;;;;;;;;5054032;28;20229;-80
2022/10/13 05:45:59;;;;;;;20.30;12.03;;;;;;;;;;5054238;28;20210;-81
2022/10/13 05:48:28;;;;;;;18.93;11.33;;;;;;;;;;5053461;28;20249;-81
2022/10/13 05:50:56;;;;;;;21.47;12.43;;;;;;;;;;5053970;28;20237;-82
2022/10/13 05:53:24;;;;;;;21.40;12.47;;;;;;;;;;5053826;28;20234;-81
2022/10/13 05:55:51;;;;;;;18.87;12.20;;;;;;;;;;5053876;28;20264;-82
2022/10/13 05:58:19;;;;;;;20.73;12.00;;;;;;;;;;5048290;28;20228;-81
2022/10/13 06:00:46;;;;;;;20.50;13.17;;;;;;;;;;5053541;28;20242;-80
2022/10/13 06:03:14;;;;;;;23.47;13.53;;;;;;;;;;5052970;28;20230;-81
2022/10/13 06:05:46;;;;;;;28.27;13.37;;;;;;;;;;5060375;28;20205;-81
2022/10/13 06:08:13;;;;;;;22.93;13.20;;;;;;;;;;5052689;28;20309;-78
2022/10/13 06:10:41;;;;;;;23.40;14.37;;;;;;;;;;5052485;28;20236;-80
2022/10/13 06:13:09;;;;;;;24.67;13.70;;;;;;;;;;5053117;28;20757;-81
2022/10/13 06:15:36;;;;;;;23.27;13.63;;;;;;;;;;5054898;28;20210;-79
2022/10/13 06:18:07;;;;;;;24.57;13.13;;;;;;;;;;5072532;28;20237;-79
2022/10/13 06:20:34;;;;;;;22.63;13.03;;;;;;;;;;5072675;28;20236;-79
2022/10/13 06:23:03;;;;;;;24.47;13.47;;;;;;;;;;5072692;28;20233;-80
2022/10/13 06:25:30;;;;;;;18.80;12.17;;;;;;;;;;5072947;28;20220;-79
2022/10/13 06:27:58;;;;;;;21.80;12.63;;;;;;;;;;5072127;28;20237;-80
2022/10/13 06:30:26;;;;;;;17.03;11.50;;;;;;;;;;5072770;28;20233;-79
2022/10/13 06:32:54;;;;;;;21.63;13.77;;;;;;;;;;5072433;28;20248;-80
2022/10/13 06:35:21;;;;;;;22.87;13.70;;;;;;;;;;5072863;28;20254;-80
2022/10/13 06:37:49;;;;;;;22.77;14.23;;;;;;;;;;5071896;28;20244;-81
2022/10/13 06:40:17;;;;;;;25.97;14.30;;;;;;;;;;5072760;28;20229;-80
2022/10/13 06:42:49;;;;;;;31.67;16.67;;;;;;;;;;5072181;28;20233;-80
2022/10/13 06:45:16;;;;;;;29.17;16.50;;;;;;;;;;5072745;28;20292;-80
2022/10/13 06:47:44;;;;;;;27.77;15.80;;;;;;;;;;5072389;28;20237;-80
2022/10/13 06:50:11;;;;;;;37.33;19.27;;;;;;;;;;5072459;28;20885;-80
2022/10/13 06:52:38;;;;;;;37.53;18.23;;;;;;;;;;5064863;28;20325;-80
2022/10/13 06:55:06;;;;;;;33.40;17.80;;;;;;;;;;5052358;28;20214;-81
2022/10/13 06:57:34;;;;;;;40.53;19.20;;;;;;;;;;5053832;28;20253;-82
2022/10/13 07:00:01;;;;;;;41.37;20.33;;;;;;;;;;5072094;28;20234;-82
2022/10/13 07:02:28;;;;;;;44.50;21.00;;;;;;;;;;5059642;28;20636;-82
2022/10/13 07:04:55;;;;;;;46.30;21.40;;;;;;;;;;5057847;28;20744;-82
2022/10/13 07:07:22;;;;;;;45.60;21.90;;;;;;;;;;5051766;28;20233;-82
2022/10/13 07:09:49;;;;;;;54.73;25.77;;;;;;;;;;5051629;28;20210;-82
2022/10/13 07:12:16;;;;;;;50.73;23.37;;;;;;;;;;5051621;28;20202;-82
2022/10/13 07:14:45;;;;;;;45.40;21.80;;;;;;;;;;5051895;28;20213;-81
2022/10/13 07:17:12;;;;;;;40.97;21.93;;;;;;;;;;5051620;28;20206;-82
2022/10/13 07:19:39;;;;;;;34.93;19.20;;;;;;;;;;5051801;28;20217;-82
2022/10/13 07:22:06;;;;;;;40.27;20.93;;;;;;;;;;5052461;28;20221;-84
2022/10/13 07:24:33;;;;;;;48.47;23.10;;;;;;;;;;5053134;28;20209;-82
2022/10/13 07:27:00;;;;;;;47.53;24.67;;;;;;;;;;5052356;28;20209;-82
2022/10/13 07:29:27;;;;;;;42.27;22.30;;;;;;;;;;5051830;28;20226;-82
2022/10/13 07:31:56;;;;;;;52.57;24.30;;;;;;;;;;5051662;28;20229;-82
2022/10/13 07:34:23;;;;;;;48.47;24.17;;;;;;;;;;5051550;28;20233;-82
2022/10/13 07:36:50;;;;;;;47.43;23.87;;;;;;;;;;5051902;28;20214;-82
2022/10/13 07:39:17;;;;;;;50.63;24.87;;;;;;;;;;5051100;28;20728;-82
2022/10/13 07:41:44;;;;;;;48.93;25.03;;;;;;;;;;5051621;28;20237;-82
2022/10/13 07:44:11;;;;;;;53.43;24.83;;;;;;;;;;5051222;28;20229;-82
2022/10/13 07:46:38;;;;;;;55.87;25.23;;;;;;;;;;5051532;28;20228;-82
2022/10/13 07:49:07;;;;;;;51.03;25.50;;;;;;;;;;5051048;28;20713;-82
2022/10/13 07:51:34;;;;;;;54.60;25.87;;;;;;;;;;5051731;28;20701;-82
2022/10/13 07:54:01;;;;;;;61.10;26.83;;;;;;;;;;5069366;28;20256;-83
2022/10/13 07:56:28;;;;;;;64.33;26.97;;;;;;;;;;5071681;28;20551;-83
2022/10/13 07:58:55;;;;;;;58.00;28.10;;;;;;;;;;5056907;28;20246;-82
2022/10/13 08:01:22;;;;;;;54.00;26.87;;;;;;;;;;5051222;28;20226;-83
2022/10/13 08:03:49;;;;;;;57.87;27.03;;;;;;;;;;5050239;28;20242;-81
2022/10/13 08:06:18;;;;;;;54.93;27.83;;;;;;;;;;5051303;28;20210;-81
2022/10/13 08:08:45;;;;;;;61.93;29.10;;;;;;;;;;5050430;28;20256;-81
2022/10/13 08:11:13;;;;;;;64.40;30.33;;;;;;;;;;5051332;28;20222;-81
2022/10/13 08:13:40;;;;;;;54.53;28.80;;;;;;;;;;5050628;28;20268;-81
2022/10/13 08:16:07;;;;;;;62.53;30.73;;;;;;;;;;5051419;28;20206;-81
2022/10/13 08:18:34;;;;;;;60.67;28.90;;;;;;;;;;5050275;28;20241;-82
2022/10/13 08:21:02;;;;;;;66.30;31.33;;;;;;;;;;5051181;28;20230;-81
2022/10/13 08:23:31;;;;;;;66.80;30.20;;;;;;;;;;5050985;28;20234;-82
2022/10/13 08:25:58;;;;;;;52.93;29.17;;;;;;;;;;5051334;28;20202;-82
2022/10/13 08:28:27;;;;;;;51.50;28.23;;;;;;;;;;5050902;28;20234;-84
2022/10/13 08:30:55;;;;;;;66.53;28.40;;;;;;;;;;5050998;28;20710;-82
2022/10/13 08:33:22;;;;;;;53.27;28.23;;;;;;;;;;5050467;28;20721;-81
2022/10/13 08:35:50;;;;;;;51.50;27.40;;;;;;;;;;5051175;28;20210;-82
2022/10/13 08:38:17;;;;;;;61.93;29.07;;;;;;;;;;5050522;28;20237;-82
2022/10/13 08:40:47;;;;;;;52.67;28.37;;;;;;;;;;5050772;28;20226;-82
2022/10/13 08:43:16;;;;;;;55.53;29.07;;;;;;;;;;5049964;28;20230;-82
2022/10/13 08:45:43;;;;;;;50.13;26.87;;;;;;;;;;5050864;28;20679;-82
2022/10/13 08:48:13;;;;;;;49.87;25.10;;;;;;;;;;5049749;28;20701;-82
2022/10/13 08:50:41;;;;;;;48.17;24.83;;;;;;;;;;5030968;28;20234;-82
2022/10/13 08:53:13;;;;;;;47.83;24.43;;;;;;;;;;5042468;28;20234;-82
2022/10/13 08:55:42;;;;;;;46.57;24.50;;;;;;;;;;5043028;28;20556;-82
2022/10/13 08:58:13;;;;;;;38.20;23.63;;;;;;;;;;5050601;28;20243;-82
2022/10/13 09:00:40;;;;;;;43.67;23.43;;;;;;;;;;5042979;28;20223;-82
2022/10/13 09:03:17;;;;;;;40.00;22.73;;;;;;;;;;5050223;28;20230;-82
2022/10/13 09:05:49;;;;;;;33.03;20.40;;;;;;;;;;5050477;28;20205;-82
2022/10/13 09:08:18;;;;;;;39.47;22.00;;;;;;;;;;5050162;28;20249;-82
2022/10/13 09:10:48;;;;;;;39.90;20.33;;;;;;;;;;5050343;28;20226;-82
2022/10/13 09:13:17;;;;;;;32.43;18.90;;;;;;;;;;5050144;28;20268;-81
2022/10/13 09:15:44;;;;;;;30.53;18.90;;;;;;;;;;5054174;28;20213;-81
2022/10/13 09:18:12;;;;;;;29.57;18.17;;;;;;;;;;5053972;28;20238;-80
2022/10/13 09:20:40;;;;;;;30.80;18.10;;;;;;;;;;5053985;28;20229;-81
2022/10/13 09:23:16;;;;;;;24.37;15.97;;;;;;;;;;5053853;28;20631;-80
2022/10/13 09:25:44;;;;;;;30.67;18.13;;;;;;;;;;5054100;28;20211;-80
2022/10/13 09:28:11;;;;;;;31.10;17.00;;;;;;;;;;5053297;28;20725;-81
2022/10/13 09:30:41;;;;;;;28.43;17.63;;;;;;;;;;5053855;28;20241;-82
2022/10/13 09:33:16;;;;;;;25.10;16.47;;;;;;;;;;5053811;28;20237;-81
2022/10/13 09:35:44;;;;;;;22.23;15.70;;;;;;;;;;5053923;28;20202;-81
2022/10/13 09:38:13;;;;;;;24.10;15.83;;;;;;;;;;5053589;28;20233;-81
2022/10/13 09:40:41;;;;;;;24.30;15.47;;;;;;;;;;5053573;28;20230;-81
2022/10/13 09:43:18;;;;;;;23.70;14.93;;;;;;;;;;5053279;28;20351;-81
2022/10/13 09:45:46;;;;;;;26.60;15.33;;;;;;;;;;5053743;28;20201;-81
2022/10/13 09:48:22;;;;;;;22.70;14.50;;;;;;;;;;5053092;28;20264;-81
2022/10/13 09:50:49;;;;;;;19.27;14.63;;;;;;;;;;5053769;28;20222;-81
2022/10/13 09:53:22;;;;;;;26.70;15.23;;;;;;;;;;5053242;28;20244;-80
2022/10/13 09:55:49;;;;;;;24.73;14.80;;;;;;;;;;5053117;28;20216;-81
2022/10/13 09:58:19;;;;;;;26.13;14.77;;;;;;;;;;5052928;28;20604;-81
2022/10/13 10:00:49;;;;;;;23.33;15.60;;;;;;;;;;5053037;28;20233;-80
2022/10/13 10:03:19;;;;;;;21.07;14.57;;;;;;;;;;5052918;28;20337;-81
2022/10/13 10:05:50;;;;;;;23.13;14.37;;;;;;;;;;5053534;28;20198;-80
2022/10/13 10:08:19;;;;;;;22.47;15.20;;;;;;;;;;5053576;28;20592;-80
2022/10/13 10:10:47;;;;;;;22.70;15.30;;;;;;;;;;5053453;28;20605;-80
2022/10/13 10:13:15;;;;;;;22.57;15.33;;;;;;;;;;5052658;28;20226;-80
2022/10/13 10:15:51;;;;;;;23.17;14.70;;;;;;;;;;5053278;28;20202;-81
2022/10/13 10:18:21;;;;;;;21.23;14.00;;;;;;;;;;5052608;28;20256;-81
2022/10/13 10:20:55;;;;;;;19.17;14.03;;;;;;;;;;5054158;28;20230;-81
2022/10/13 10:23:26;;;;;;;23.20;14.57;;;;;;;;;;5053739;28;20242;-81
2022/10/13 10:25:58;;;;;;;24.57;13.87;;;;;;;;;;5053480;28;20639;-83
2022/10/13 10:28:44;;;;;;;28.50;15.80;;;;;;;;;;5052833;28;20230;-82
2022/10/13 10:31:18;;;;;;;25.73;15.23;;;;;;;;;;5053668;28;20238;-82
2022/10/13 10:33:50;;;;;;;28.30;14.73;;;;;;;;;;5052544;28;20234;-82
2022/10/13 10:36:20;;;;;;;22.97;14.73;;;;;;;;;;5053222;28;20213;-81
2022/10/13 10:38:51;;;;;;;21.47;14.50;;;;;;;;;;5052202;28;20237;-82
2022/10/13 10:41:26;;;;;;;22.87;15.03;;;;;;;;;;5052685;28;20253;-81
2022/10/13 10:43:55;;;;;;;24.30;15.90;;;;;;;;;;5052810;28;20233;-81
2022/10/13 10:46:26;;;;;;;21.57;14.97;;;;;;;;;;5053080;28;20210;-81
2022/10/13 10:48:55;;;;;;;25.33;15.00;;;;;;;;;;5052317;28;20320;-81
2022/10/13 10:51:30;;;;;;;25.53;15.27;;;;;;;;;;5052794;28;20229;-81
2022/10/13 10:54:01;;;;;;;23.93;14.93;;;;;;;;;;5052265;28;20237;-81
2022/10/13 10:56:31;;;;;;;22.33;14.27;;;;;;;;;;5052427;28;20214;-81
2022/10/13 10:59:03;;;;;;;23.63;15.73;;;;;;;;;;5052094;28;20236;-81
2022/10/13 11:01:35;;;;;;;29.30;16.07;;;;;;;;;;5044604;28;20305;-81
2022/10/13 11:04:19;;;;;;;24.80;16.07;;;;;;;;;;5032138;28;20607;-80
2022/10/13 11:06:46;;;;;;;27.50;17.40;;;;;;;;;;5066336;28;20216;-81
2022/10/13 11:09:14;;;;;;;26.87;17.00;;;;;;;;;;5048034;28;20229;-81
2022/10/13 11:11:41;;;;;;;26.90;16.30;;;;;;;;;;5037474;28;20226;-81
2022/10/13 11:14:24;;;;;;;28.53;16.50;;;;;;;;;;5032900;28;20234;-81
2022/10/13 11:17:03;;;;;;;24.00;16.33;;;;;;;;;;5051773;28;20675;-80
2022/10/13 11:19:31;;;;;;;21.80;15.60;;;;;;;;;;5051555;28;20229;-80
2022/10/13 11:22:22;;;;;;;27.30;16.93;;;;;;;;;;5049603;28;20232;-80
2022/10/13 11:25:35;;;;;;;27.27;17.17;;;;;;;;;;5051407;28;20288;-80
2022/10/13 11:28:25;;;;;;;30.37;17.83;;;;;;;;;;5050980;28;20230;-81
2022/10/13 11:30:54;;;;;;;31.53;17.83;;;;;;;;;;5051463;28;20653;-80
2022/10/13 11:33:36;;;;;;;34.90;17.40;;;;;;;;;;5051565;28;20705;-80
2022/10/13 11:36:22;;;;;;;28.30;17.67;;;;;;;;;;5051904;28;20210;-80
2022/10/13 11:38:51;;;;;;;24.07;15.40;;;;;;;;;;5035991;28;20238;-80
2022/10/13 11:41:23;;;;;;;22.33;14.87;;;;;;;;;;5031899;28;20222;-80
2022/10/13 11:43:52;;;;;;;25.93;16.37;;;;;;;;;;5037728;28;20254;-81
2022/10/13 11:46:23;;;;;;;23.80;16.50;;;;;;;;;;5045443;28;20237;-81
2022/10/13 11:48:58;;;;;;;27.97;18.53;;;;;;;;;;5046383;28;20291;-80
2022/10/13 11:51:30;;;;;;;27.77;18.67;;;;;;;;;;5049257;28;20593;-80
2022/10/13 11:54:02;;;;;;;32.40;18.87;;;;;;;;;;5039767;28;20230;-81
2022/10/13 11:56:33;;;;;;;25.67;17.43;;;;;;;;;;5051431;28;20228;-81
2022/10/13 11:59:00;;;;;;;28.17;17.63;;;;;;;;;;5034072;28;20249;-79
2022/10/13 12:01:27;;;;;;;29.80;17.70;;;;;;;;;;5031304;28;20242;-81
2022/10/13 12:03:56;;;;;;;25.47;17.57;;;;;;;;;;5048876;28;20238;-79
2022/10/13 12:06:32;;;;;;;24.73;16.07;;;;;;;;;;5051128;28;20210;-79
2022/10/13 12:09:01;;;;;;;27.00;17.40;;;;;;;;;;5049769;28;20235;-79
2022/10/13 12:11:29;;;;;;;23.57;16.13;;;;;;;;;;5051268;28;20226;-79
2022/10/13 12:13:57;;;;;;;28.43;17.77;;;;;;;;;;5050536;28;20235;-80
2022/10/13 12:16:24;;;;;;;26.50;16.50;;;;;;;;;;5050474;28;20372;-81
2022/10/13 12:18:52;;;;;;;24.67;15.87;;;;;;;;;;5049739;28;20245;-81
2022/10/13 12:21:21;;;;;;;29.30;17.33;;;;;;;;;;5031391;28;20230;-80
2022/10/13 12:23:48;;;;;;;25.87;16.33;;;;;;;;;;5030396;28;20250;-80
2022/10/13 12:26:16;;;;;;;25.00;15.73;;;;;;;;;;5043408;28;20202;-79
2022/10/13 12:28:46;;;;;;;28.43;16.33;;;;;;;;;;5034117;28;20234;-80
2022/10/13 12:31:18;;;;;;;28.63;16.13;;;;;;;;;;5032113;28;20221;-80
2022/10/13 12:33:52;;;;;;;23.70;15.20;;;;;;;;;;5028909;28;20234;-84
2022/10/13 12:36:21;;;;;;;22.60;16.17;;;;;;;;;;5031042;28;20214;-82
2022/10/13 12:38:50;;;;;;;24.43;15.13;;;;;;;;;;5050247;28;20242;-81
2022/10/13 12:41:18;;;;;;;25.37;15.67;;;;;;;;;;5051140;28;20222;-83
2022/10/13 12:43:46;;;;;;;22.00;14.77;;;;;;;;;;5050563;28;20244;-84
2022/10/13 12:46:13;;;;;;;19.67;14.63;;;;;;;;;;5050325;28;20293;-85
2022/10/13 12:48:43;;;;;;;19.03;14.53;;;;;;;;;;5050859;28;20244;-83
2022/10/13 12:51:15;;;;;;;21.40;14.10;;;;;;;;;;5054508;28;20265;-80
2022/10/13 12:53:44;;;;;;;22.37;15.83;;;;;;;;;;5054252;28;20784;-80
2022/10/13 12:56:19;;;;;;;24.13;15.30;;;;;;;;;;5050457;28;20240;-79
2022/10/13 12:58:46;;;;;;;23.47;15.47;;;;;;;;;;5054373;28;20235;-80
2022/10/13 13:01:25;;;;;;;19.90;14.23;;;;;;;;;;5054729;28;20225;-80
2022/10/13 13:03:54;;;;;;;20.83;14.77;;;;;;;;;;5052460;28;20237;-79
2022/10/13 13:06:23;;;;;;;22.17;14.93;;;;;;;;;;5045514;28;20206;-78
2022/10/13 13:09:05;;;;;;;21.83;15.20;;;;;;;;;;5038835;28;20693;-78
2022/10/13 13:11:36;;;;;;;24.07;14.77;;;;;;;;;;5048483;28;20214;-79
2022/10/13 13:14:21;;;;;;;21.73;14.40;;;;;;;;;;5048283;28;20230;-78
2022/10/13 13:17:02;;;;;;;21.13;14.00;;;;;;;;;;5045197;28;20206;-78
2022/10/13 13:19:31;;;;;;;20.37;13.00;;;;;;;;;;5034640;28;20253;-79
2022/10/13 13:21:58;;;;;;;20.97;13.63;;;;;;;;;;5034830;28;20262;-81
2022/10/13 13:24:25;;;;;;;19.10;12.27;;;;;;;;;;5034562;28;20722;-80
2022/10/13 13:26:54;;;;;;;20.70;13.87;;;;;;;;;;5047371;28;20203;-80
2022/10/13 13:29:21;;;;;;;20.20;13.50;;;;;;;;;;5043287;28;20226;-80
2022/10/13 13:31:48;;;;;;;21.90;13.30;;;;;;;;;;5041764;28;20232;-80
2022/10/13 13:34:15;;;;;;;18.40;12.90;;;;;;;;;;5045405;28;20226;-80
2022/10/13 13:36:43;;;;;;;20.23;12.97;;;;;;;;;;5052045;28;20209;-81
2022/10/13 13:39:14;;;;;;;18.07;13.17;;;;;;;;;;5051784;28;20261;-80
2022/10/13 13:41:41;;;;;;;19.03;13.20;;;;;;;;;;5050087;28;20214;-80
2022/10/13 13:44:10;;;;;;;18.87;13.17;;;;;;;;;;5033808;28;20238;-81
2022/10/13 13:46:37;;;;;;;18.23;11.20;;;;;;;;;;5050192;28;20682;-80
2022/10/13 13:49:05;;;;;;;19.47;12.93;;;;;;;;;;5044333;28;20226;-80
2022/10/13 13:51:32;;;;;;;19.07;12.57;;;;;;;;;;5042492;28;20221;-80
2022/10/13 13:53:59;;;;;;;17.87;12.63;;;;;;;;;;5052082;28;20782;-78
2022/10/13 13:56:26;;;;;;;19.03;12.43;;;;;;;;;;5064551;28;20678;-78
2022/10/13 13:58:53;;;;;;;23.93;14.37;;;;;;;;;;5072676;28;20244;-78
2022/10/13 14:01:22;;;;;;;17.57;13.00;;;;;;;;;;5072791;28;20681;-80
2022/10/13 14:03:49;;;;;;;19.20;13.10;;;;;;;;;;5056802;28;20244;-79
2022/10/13 14:06:17;;;;;;;16.43;11.67;;;;;;;;;;5053623;28;20202;-81
2022/10/13 14:08:44;;;;;;;15.50;11.70;;;;;;;;;;5048176;28;20227;-81
2022/10/13 14:11:11;;;;;;;19.73;12.70;;;;;;;;;;5033622;28;20237;-80
2022/10/13 14:13:38;;;;;;;18.63;11.97;;;;;;;;;;5044833;28;20226;-79
2022/10/13 14:16:06;;;;;;;22.70;12.30;;;;;;;;;;5041519;28;20567;-79
2022/10/13 14:18:34;;;;;;;18.80;12.80;;;;;;;;;;5046201;28;20234;-80
2022/10/13 14:21:05;;;;;;;17.03;12.00;;;;;;;;;;5045584;28;20226;-80
2022/10/13 14:23:32;;;;;;;19.37;12.13;;;;;;;;;;5040555;28;20227;-80
2022/10/13 14:26:00;;;;;;;21.83;12.00;;;;;;;;;;5033163;28;20223;-80
2022/10/13 14:28:27;;;;;;;16.60;12.70;;;;;;;;;;5051849;28;20245;-80
2022/10/13 14:30:55;;;;;;;17.23;12.47;;;;;;;;;;5053270;28;20269;-80
2022/10/13 14:33:22;;;;;;;17.53;12.30;;;;;;;;;;5051137;28;20225;-80